Michelle Golding — WDH7930 — position and weather

sailwx.info

Track history (hours):
 
Tides and Currents Weather Stations Pressure Air Temp Water Temp Dewpoint Dewpoint Depression Visibility Wind Speed Wind Dir Waves Ship Positions

Michelle Golding

Owner: GOLDING BARGE LINE, INC, VICKSBURG, MS. More information available from US FCC via Universal Licensing System and Coast Guard Vessel Documentation Center.

Last reported at 2017-Dec-08 16:42 UTC. Time now 2017-Dec-12 12:24 UTC.
Position N 29°34' W 090°23'.

Length 229 m; draft 2.7 m.

Type: . MMSI: 367652980.

Date/timePositionNaut miles runAvg speedWind from/ knotsBaromVisibWave heightAir tempDewpointWater temp
2017-Dec-08 16:42N 29°34' W 090°23'1 3.8
2017-Dec-08 16:19N 29°33' W 090°25'0 0.6
2017-Dec-08 16:00N 29°33' W 090°25'1 1.1
2017-Dec-08 15:26N 29°33' W 090°26'0 0.4
2017-Dec-08 14:54N 29°33' W 090°26'1 2.2
2017-Dec-08 14:25N 29°33' W 090°27'2 4.4
2017-Dec-08 14:00N 29°34' W 090°29'2 4.3
2017-Dec-08 13:30N 29°34' W 090°32'2 4.4
2017-Dec-08 13:00N 29°34' W 090°34'2 4.2
2017-Dec-08 12:30N 29°35' W 090°37'2 4.1
2017-Dec-08 12:00N 29°36' W 090°39'2 4.0
2017-Dec-08 11:30N 29°36' W 090°41'1 2.9
2017-Dec-08 11:00N 29°36' W 090°43'2 3.5
2017-Dec-08 10:30N 29°35' W 090°43'1 2.7
2017-Dec-08 10:00N 29°34' W 090°44'2 4.3
2017-Dec-08 09:30N 29°32' W 090°46'2 4.6
2017-Dec-08 09:00N 29°32' W 090°48'2 4.8
2017-Dec-08 08:30N 29°32' W 090°51'2 4.7
2017-Dec-08 08:00N 29°33' W 090°54'57 3.8
2017-Dec-07 16:50N 29°51' W 091°56'1 3.4
2017-Dec-07 16:30N 29°50' W 091°57'2 3.8
2017-Dec-07 16:00N 29°50' W 091°59'2 4.5
2017-Dec-07 15:30N 29°49' W 092°02'2 4.5
2017-Dec-07 15:00N 29°48' W 092°04'2 4.4
2017-Dec-07 14:30N 29°48' W 092°07'2 4.3
2017-Dec-07 14:00N 29°47' W 092°09'2 4.2
2017-Dec-07 13:30N 29°47' W 092°11'1 2.4
2017-Dec-07 13:00N 29°47' W 092°13'1 1.6
2017-Dec-07 12:30N 29°48' W 092°13'2 3.1
2017-Dec-07 12:00N 29°48' W 092°15'2 4.3
2017-Dec-07 11:30N 29°49' W 092°17'2 3.9
2017-Dec-07 11:00N 29°50' W 092°19'2 4.2
2017-Dec-07 10:30N 29°51' W 092°21'3 3.5
2017-Dec-07 09:45N 29°53' W 092°23'42 4.0
2017-Dec-06 23:11N 29°58' W 093°11'1 4.4
2017-Dec-06 23:00N 29°59' W 093°12'2 4.0
2017-Dec-06 22:30N 29°60' W 093°13'2 3.4
2017-Dec-06 22:00N 30°02' W 093°14'2 3.2
2017-Dec-06 21:30N 30°03' W 093°16'1 2.7
2017-Dec-06 21:00N 30°04' W 093°16'  
2017-Dec-04 10:02N 29°44' W 095°12'0 0.0
2017-Dec-04 01:29N 29°44' W 095°12'0 0.0
2017-Dec-04 00:49N 29°44' W 095°12'0 0.0
2017-Dec-04 00:27N 29°44' W 095°12'3 5.6
2017-Dec-03 23:59N 29°44' W 095°10'4 7.9
2017-Dec-03 23:30N 29°46' W 095°05'2 3.3
2017-Dec-03 22:51N 29°47' W 095°04'2 5.5
2017-Dec-03 22:29N 29°46' W 095°05'1 0.1
2017-Dec-03 06:55N 29°46' W 095°06'0 0.0
2017-Dec-03 06:28N 29°46' W 095°06'0 0.0
2017-Dec-03 05:57N 29°46' W 095°06'0 0.0
2017-Dec-03 05:30N 29°46' W 095°06'0 0.0
2017-Dec-03 04:58N 29°46' W 095°06'0 0.0
2017-Dec-03 04:30N 29°46' W 095°06'0 0.0
2017-Dec-03 04:00N 29°46' W 095°06'0 0.0
2017-Dec-03 02:54N 29°46' W 095°06'0 0.0
2017-Dec-02 07:56N 29°46' W 095°06'0 0.0
2017-Dec-02 07:28N 29°46' W 095°06'0 0.0
2017-Dec-02 06:18N 29°46' W 095°06'0 0.0
2017-Dec-02 06:00N 29°46' W 095°06'0 0.0
2017-Nov-30 12:48N 29°46' W 095°06'0 0.0
2017-Nov-30 12:30N 29°46' W 095°06'0 0.0
2017-Nov-30 11:59N 29°46' W 095°06'0 0.0
2017-Nov-30 11:30N 29°46' W 095°06'0 0.0
2017-Nov-30 10:59N 29°46' W 095°06'0 0.0
2017-Nov-30 10:30N 29°46' W 095°06'0 0.0
2017-Nov-30 09:59N 29°46' W 095°06'0 0.0
2017-Nov-30 09:29N 29°46' W 095°06'0 0.0
2017-Nov-30 08:58N 29°46' W 095°06'0 0.0
2017-Nov-30 08:30N 29°46' W 095°06'0 0.0
2017-Nov-30 07:59N 29°46' W 095°06'0 0.0
2017-Nov-30 07:20N 29°46' W 095°06'0 0.0
2017-Nov-30 06:59N 29°46' W 095°06'0 0.0
2017-Nov-30 06:29N 29°46' W 095°06'0 0.0
2017-Nov-30 06:00N 29°46' W 095°06'0 0.0
2017-Nov-30 05:17N 29°46' W 095°06'0 0.0
2017-Nov-30 04:58N 29°46' W 095°06'  
Track history (hours):
 
Tides and Currents Weather Stations Pressure Air Temp Water Temp Dewpoint Dewpoint Depression Visibility Wind Speed Wind Dir Waves Ship Positions

Michelle Golding

Owner: GOLDING BARGE LINE, INC, VICKSBURG, MS. More information available from US FCC via Universal Licensing System and Coast Guard Vessel Documentation Center.

Last reported at 2017-Dec-08 16:42 UTC. Time now 2017-Dec-12 12:24 UTC.
Position N 29°34' W 090°23'.

Length 229 m; draft 2.7 m.

Type: . MMSI: 367652980.

Date/timePositionNaut miles runAvg speedWind from/ knotsBaromVisibWave heightAir tempDewpointWater temp
2017-Dec-08 16:42N 29°34' W 090°23'1 3.8
2017-Dec-08 16:19N 29°33' W 090°25'0 0.6
2017-Dec-08 16:00N 29°33' W 090°25'1 1.1
2017-Dec-08 15:26N 29°33' W 090°26'0 0.4
2017-Dec-08 14:54N 29°33' W 090°26'1 2.2
2017-Dec-08 14:25N 29°33' W 090°27'2 4.4
2017-Dec-08 14:00N 29°34' W 090°29'2 4.3
2017-Dec-08 13:30N 29°34' W 090°32'2 4.4
2017-Dec-08 13:00N 29°34' W 090°34'2 4.2
2017-Dec-08 12:30N 29°35' W 090°37'2 4.1
2017-Dec-08 12:00N 29°36' W 090°39'2 4.0
2017-Dec-08 11:30N 29°36' W 090°41'1 2.9
2017-Dec-08 11:00N 29°36' W 090°43'2 3.5
2017-Dec-08 10:30N 29°35' W 090°43'1 2.7
2017-Dec-08 10:00N 29°34' W 090°44'2 4.3
2017-Dec-08 09:30N 29°32' W 090°46'2 4.6
2017-Dec-08 09:00N 29°32' W 090°48'2 4.8
2017-Dec-08 08:30N 29°32' W 090°51'2 4.7
2017-Dec-08 08:00N 29°33' W 090°54'57 3.8
2017-Dec-07 16:50N 29°51' W 091°56'1 3.4
2017-Dec-07 16:30N 29°50' W 091°57'2 3.8
2017-Dec-07 16:00N 29°50' W 091°59'2 4.5
2017-Dec-07 15:30N 29°49' W 092°02'2 4.5
2017-Dec-07 15:00N 29°48' W 092°04'2 4.4
2017-Dec-07 14:30N 29°48' W 092°07'2 4.3
2017-Dec-07 14:00N 29°47' W 092°09'2 4.2
2017-Dec-07 13:30N 29°47' W 092°11'1 2.4
2017-Dec-07 13:00N 29°47' W 092°13'1 1.6
2017-Dec-07 12:30N 29°48' W 092°13'2 3.1
2017-Dec-07 12:00N 29°48' W 092°15'2 4.3
2017-Dec-07 11:30N 29°49' W 092°17'2 3.9
2017-Dec-07 11:00N 29°50' W 092°19'2 4.2
2017-Dec-07 10:30N 29°51' W 092°21'3 3.5
2017-Dec-07 09:45N 29°53' W 092°23'42 4.0
2017-Dec-06 23:11N 29°58' W 093°11'1 4.4
2017-Dec-06 23:00N 29°59' W 093°12'2 4.0
2017-Dec-06 22:30N 29°60' W 093°13'2 3.4
2017-Dec-06 22:00N 30°02' W 093°14'2 3.2
2017-Dec-06 21:30N 30°03' W 093°16'1 2.7
2017-Dec-06 21:00N 30°04' W 093°16'  
2017-Dec-04 10:02N 29°44' W 095°12'0 0.0
2017-Dec-04 01:29N 29°44' W 095°12'0 0.0
2017-Dec-04 00:49N 29°44' W 095°12'0 0.0
2017-Dec-04 00:27N 29°44' W 095°12'3 5.6
2017-Dec-03 23:59N 29°44' W 095°10'4 7.9
2017-Dec-03 23:30N 29°46' W 095°05'2 3.3
2017-Dec-03 22:51N 29°47' W 095°04'2 5.5
2017-Dec-03 22:29N 29°46' W 095°05'1 0.1
2017-Dec-03 06:55N 29°46' W 095°06'0 0.0
2017-Dec-03 06:28N 29°46' W 095°06'0 0.0
2017-Dec-03 05:57N 29°46' W 095°06'0 0.0
2017-Dec-03 05:30N 29°46' W 095°06'0 0.0
2017-Dec-03 04:58N 29°46' W 095°06'0 0.0
2017-Dec-03 04:30N 29°46' W 095°06'0 0.0
2017-Dec-03 04:00N 29°46' W 095°06'0 0.0
2017-Dec-03 02:54N 29°46' W 095°06'0 0.0
2017-Dec-02 07:56N 29°46' W 095°06'0 0.0
2017-Dec-02 07:28N 29°46' W 095°06'0 0.0
2017-Dec-02 06:18N 29°46' W 095°06'0 0.0
2017-Dec-02 06:00N 29°46' W 095°06'0 0.0
2017-Nov-30 12:48N 29°46' W 095°06'0 0.0
2017-Nov-30 12:30N 29°46' W 095°06'0 0.0
2017-Nov-30 11:59N 29°46' W 095°06'0 0.0
2017-Nov-30 11:30N 29°46' W 095°06'0 0.0
2017-Nov-30 10:59N 29°46' W 095°06'0 0.0
2017-Nov-30 10:30N 29°46' W 095°06'0 0.0
2017-Nov-30 09:59N 29°46' W 095°06'0 0.0
2017-Nov-30 09:29N 29°46' W 095°06'0 0.0
2017-Nov-30 08:58N 29°46' W 095°06'0 0.0
2017-Nov-30 08:30N 29°46' W 095°06'0 0.0
2017-Nov-30 07:59N 29°46' W 095°06'0 0.0
2017-Nov-30 07:20N 29°46' W 095°06'0 0.0
2017-Nov-30 06:59N 29°46' W 095°06'0 0.0
2017-Nov-30 06:29N 29°46' W 095°06'0 0.0
2017-Nov-30 06:00N 29°46' W 095°06'0 0.0
2017-Nov-30 05:17N 29°46' W 095°06'0 0.0
2017-Nov-30 04:58N 29°46' W 095°06'  

Dump ship's entire track history